sensor_id;sensor_type;location;lat;lon;timestamp;pressure;altitude;pressure_sealevel;temperature;humidity
41078;BME280;26823;42.662;23.352;2022-08-11T00:00:19;94923.44;;;20.28;68.52
41078;BME280;26823;42.662;23.352;2022-08-11T00:02:48;94912.75;;;20.14;69.45
41078;BME280;26823;42.662;23.352;2022-08-11T00:05:20;94929.84;;;20.19;69.21
41078;BME280;26823;42.662;23.352;2022-08-11T00:07:53;94926.63;;;20.17;70.31
41078;BME280;26823;42.662;23.352;2022-08-11T00:10:24;94920.78;;;20.19;69.37
41078;BME280;26823;42.662;23.352;2022-08-11T00:12:58;94924.16;;;20.25;68.99
41078;BME280;26823;42.662;23.352;2022-08-11T00:15:25;94929.50;;;20.21;69.19
41078;BME280;26823;42.662;23.352;2022-08-11T00:17:58;94926.63;;;20.17;69.56
41078;BME280;26823;42.662;23.352;2022-08-11T00:20:32;94921.81;;;20.14;69.99
41078;BME280;26823;42.662;23.352;2022-08-11T00:23:06;94927.09;;;20.19;69.44
41078;BME280;26823;42.662;23.352;2022-08-11T00:25:40;94870.41;;;19.81;69.46
41078;BME280;26823;42.662;23.352;2022-08-11T00:28:26;94929.03;;;20.19;69.55
41078;BME280;26823;42.662;23.352;2022-08-11T00:30:53;94903.94;;;20.08;69.32
41078;BME280;26823;42.662;23.352;2022-08-11T00:33:21;94905.50;;;19.97;69.83
41078;BME280;26823;42.662;23.352;2022-08-11T00:35:48;94919.38;;;20.00;70.31
41078;BME280;26823;42.662;23.352;2022-08-11T00:38:15;94905.78;;;19.83;70.82
41078;BME280;26823;42.662;23.352;2022-08-11T00:52:53;94918.19;;;19.80;71.64
41078;BME280;26823;42.662;23.352;2022-08-11T00:55:56;94919.00;;;19.81;71.77
41078;BME280;26823;42.662;23.352;2022-08-11T01:09:30;94910.59;;;19.86;71.57
41078;BME280;26823;42.662;23.352;2022-08-11T01:18:10;94913.50;;;19.81;71.83
41078;BME280;26823;42.662;23.352;2022-08-11T01:35:26;94900.91;;;19.37;73.88
41078;BME280;26823;42.662;23.352;2022-08-11T01:41:20;94889.66;;;19.30;74.07
41078;BME280;26823;42.662;23.352;2022-08-11T01:44:01;94897.38;;;19.37;73.90
41078;BME280;26823;42.662;23.352;2022-08-11T01:46:53;94892.25;;;19.27;74.75
41078;BME280;26823;42.662;23.352;2022-08-11T01:52:25;94890.03;;;18.99;75.98
41078;BME280;26823;42.662;23.352;2022-08-11T01:55:31;94901.97;;;18.94;76.42
41078;BME280;26823;42.662;23.352;2022-08-11T02:03:57;94896.72;;;19.10;75.93
41078;BME280;26823;42.662;23.352;2022-08-11T02:09:57;94893.63;;;19.20;75.44
41078;BME280;26823;42.662;23.352;2022-08-11T02:12:59;94891.66;;;19.21;75.45
41078;BME280;26823;42.662;23.352;2022-08-11T02:15:44;94886.84;;;19.18;75.27
41078;BME280;26823;42.662;23.352;2022-08-11T02:18:32;94890.06;;;19.20;75.36
41078;BME280;26823;42.662;23.352;2022-08-11T02:21:26;94883.97;;;19.14;75.33
41078;BME280;26823;42.662;23.352;2022-08-11T02:24:25;94894.25;;;19.17;75.41
41078;BME280;26823;42.662;23.352;2022-08-11T02:27:03;94894.13;;;19.14;75.49
41078;BME280;26823;42.662;23.352;2022-08-11T02:29:58;94885.03;;;18.92;76.40
41078;BME280;26823;42.662;23.352;2022-08-11T02:46:59;94877.81;;;18.87;76.78
41078;BME280;26823;42.662;23.352;2022-08-11T02:49:39;94889.06;;;18.95;76.82
41078;BME280;26823;42.662;23.352;2022-08-11T03:03:46;94887.63;;;18.80;76.94
41078;BME280;26823;42.662;23.352;2022-08-11T03:09:07;94902.47;;;18.87;77.05
41078;BME280;26823;42.662;23.352;2022-08-11T03:11:51;94874.50;;;18.64;76.95
41078;BME280;26823;42.662;23.352;2022-08-11T03:14:48;94906.38;;;18.78;77.22
41078;BME280;26823;42.662;23.352;2022-08-11T03:20:56;94909.31;;;18.64;77.86
41078;BME280;26823;42.662;23.352;2022-08-11T03:23:28;94902.06;;;18.59;78.15
41078;BME280;26823;42.662;23.352;2022-08-11T03:29:07;94882.13;;;18.50;78.16
41078;BME280;26823;42.662;23.352;2022-08-11T03:34:43;94899.84;;;18.52;78.54
41078;BME280;26823;42.662;23.352;2022-08-11T03:37:30;94906.44;;;18.51;78.60
41078;BME280;26823;42.662;23.352;2022-08-11T03:46:42;94896.97;;;18.40;79.10
41078;BME280;26823;42.662;23.352;2022-08-11T03:51:26;94910.91;;;18.73;78.06
41078;BME280;26823;42.662;23.352;2022-08-11T03:54:18;94906.81;;;18.80;77.50
41078;BME280;26823;42.662;23.352;2022-08-11T04:00:05;94918.25;;;18.43;79.75
41078;BME280;26823;42.662;23.352;2022-08-11T04:05:49;94909.34;;;18.55;79.21
41078;BME280;26823;42.662;23.352;2022-08-11T04:20:27;94913.03;;;18.59;78.75
41078;BME280;26823;42.662;23.352;2022-08-11T04:23:17;94915.22;;;18.74;77.90
41078;BME280;26823;42.662;23.352;2022-08-11T04:29:02;94909.22;;;18.34;80.32
41078;BME280;26823;42.662;23.352;2022-08-11T04:31:35;94919.84;;;18.35;80.24
41078;BME280;26823;42.662;23.352;2022-08-11T04:34:34;94916.47;;;18.38;80.30
41078;BME280;26823;42.662;23.352;2022-08-11T04:58:11;94926.28;;;19.34;76.28
41078;BME280;26823;42.662;23.352;2022-08-11T05:09:36;94921.84;;;19.93;72.31
41078;BME280;26823;42.662;23.352;2022-08-11T05:12:18;94923.31;;;20.12;71.76
41078;BME280;26823;42.662;23.352;2022-08-11T05:14:48;94930.78;;;20.24;71.35
41078;BME280;26823;42.662;23.352;2022-08-11T05:17:40;94918.66;;;20.25;71.57
41078;BME280;26823;42.662;23.352;2022-08-11T05:20:25;94917.53;;;20.38;70.56
41078;BME280;26823;42.662;23.352;2022-08-11T05:23:10;94917.44;;;20.47;70.54
41078;BME280;26823;42.662;23.352;2022-08-11T05:25:58;94918.63;;;20.46;70.03
41078;BME280;26823;42.662;23.352;2022-08-11T05:28:55;94912.22;;;20.54;69.86
41078;BME280;26823;42.662;23.352;2022-08-11T05:31:45;94917.13;;;20.61;69.23
41078;BME280;26823;42.662;23.352;2022-08-11T05:34:52;94913.44;;;21.02;67.23
41078;BME280;26823;42.662;23.352;2022-08-11T05:37:36;94923.06;;;21.21;66.32
41078;BME280;26823;42.662;23.352;2022-08-11T05:40:05;94922.59;;;21.31;66.04
41078;BME280;26823;42.662;23.352;2022-08-11T05:42:55;94911.59;;;21.31;65.72
41078;BME280;26823;42.662;23.352;2022-08-11T05:45:40;94917.91;;;21.57;64.64
41078;BME280;26823;42.662;23.352;2022-08-11T05:48:32;94916.63;;;21.54;65.10
41078;BME280;26823;42.662;23.352;2022-08-11T05:51:16;94909.50;;;21.53;64.52
41078;BME280;26823;42.662;23.352;2022-08-11T05:54:01;94924.53;;;21.68;64.02
41078;BME280;26823;42.662;23.352;2022-08-11T05:56:49;94921.19;;;21.75;64.11
41078;BME280;26823;42.662;23.352;2022-08-11T05:59:18;94920.94;;;21.80;63.70
41078;BME280;26823;42.662;23.352;2022-08-11T06:01:45;94923.84;;;22.12;62.31
41078;BME280;26823;42.662;23.352;2022-08-11T06:04:20;94924.34;;;22.30;61.63
41078;BME280;26823;42.662;23.352;2022-08-11T06:09:48;94877.94;;;22.16;61.06
41078;BME280;26823;42.662;23.352;2022-08-11T06:12:27;94909.84;;;22.45;61.33
41078;BME280;26823;42.662;23.352;2022-08-11T06:14:56;94917.75;;;22.47;60.88
41078;BME280;26823;42.662;23.352;2022-08-11T06:17:24;94924.31;;;22.42;61.32
41078;BME280;26823;42.662;23.352;2022-08-11T06:19:51;94903.72;;;22.24;62.00
41078;BME280;26823;42.662;23.352;2022-08-11T06:22:24;94903.34;;;22.25;61.76
41078;BME280;26823;42.662;23.352;2022-08-11T06:25:00;94902.19;;;22.39;61.29
41078;BME280;26823;42.662;23.352;2022-08-11T06:27:29;94914.09;;;22.43;61.23
41078;BME280;26823;42.662;23.352;2022-08-11T06:29:56;94893.09;;;22.38;60.87
41078;BME280;26823;42.662;23.352;2022-08-11T06:32:27;94895.75;;;22.35;60.87
41078;BME280;26823;42.662;23.352;2022-08-11T06:35:09;94910.56;;;22.58;60.34
41078;BME280;26823;42.662;23.352;2022-08-11T06:40:39;94910.78;;;22.97;58.68
41078;BME280;26823;42.662;23.352;2022-08-11T06:43:19;94911.59;;;23.30;58.08
41078;BME280;26823;42.662;23.352;2022-08-11T06:46:02;94887.13;;;23.28;57.17
41078;BME280;26823;42.662;23.352;2022-08-11T06:48:32;94912.00;;;23.48;55.77
41078;BME280;26823;42.662;23.352;2022-08-11T06:51:07;94903.72;;;23.48;55.62
41078;BME280;26823;42.662;23.352;2022-08-11T06:53:48;94903.44;;;23.53;55.17
41078;BME280;26823;42.662;23.352;2022-08-11T06:56:21;94910.72;;;23.61;55.05
41078;BME280;26823;42.662;23.352;2022-08-11T06:59:06;94912.06;;;23.68;54.48
41078;BME280;26823;42.662;23.352;2022-08-11T07:02:10;94913.59;;;23.49;55.05
41078;BME280;26823;42.662;23.352;2022-08-11T07:04:43;94907.00;;;23.54;56.08
41078;BME280;26823;42.662;23.352;2022-08-11T07:13:41;94912.25;;;24.14;51.65
41078;BME280;26823;42.662;23.352;2022-08-11T07:23:11;94909.56;;;24.18;51.32
41078;BME280;26823;42.662;23.352;2022-08-11T07:25:58;94901.88;;;24.27;49.76
41078;BME280;26823;42.662;23.352;2022-08-11T07:28:46;94915.31;;;24.29;50.15
41078;BME280;26823;42.662;23.352;2022-08-11T07:36:27;94904.09;;;24.84;48.89
41078;BME280;26823;42.662;23.352;2022-08-11T07:38:55;94906.09;;;24.64;49.09
41078;BME280;26823;42.662;23.352;2022-08-11T07:41:22;94916.84;;;24.65;49.58
41078;BME280;26823;42.662;23.352;2022-08-11T07:43:51;94911.84;;;24.98;49.10
41078;BME280;26823;42.662;23.352;2022-08-11T07:46:19;94890.59;;;25.02;48.06
41078;BME280;26823;42.662;23.352;2022-08-11T07:49:10;94892.88;;;24.96;47.34
41078;BME280;26823;42.662;23.352;2022-08-11T07:51:57;94887.25;;;24.92;48.08
41078;BME280;26823;42.662;23.352;2022-08-11T07:54:42;94898.16;;;25.05;47.82
41078;BME280;26823;42.662;23.352;2022-08-11T08:34:02;94873.13;;;26.05;44.74
41078;BME280;26823;42.662;23.352;2022-08-11T08:36:28;94880.81;;;26.19;44.30
41078;BME280;26823;42.662;23.352;2022-08-11T08:38:54;94884.84;;;26.25;43.90
41078;BME280;26823;42.662;23.352;2022-08-11T08:41:27;94884.66;;;26.41;43.78
41078;BME280;26823;42.662;23.352;2022-08-11T08:43:55;94893.72;;;26.38;44.45
41078;BME280;26823;42.662;23.352;2022-08-11T08:46:26;94855.34;;;26.06;43.14
41078;BME280;26823;42.662;23.352;2022-08-11T08:48:56;94873.66;;;25.87;43.34
41078;BME280;26823;42.662;23.352;2022-08-11T08:51:25;94874.22;;;26.00;43.73
41078;BME280;26823;42.662;23.352;2022-08-11T08:54:05;94872.84;;;25.83;43.93
41078;BME280;26823;42.662;23.352;2022-08-11T08:56:32;94863.63;;;25.76;44.13
41078;BME280;26823;42.662;23.352;2022-08-11T08:59:01;94873.56;;;26.07;44.07
41078;BME280;26823;42.662;23.352;2022-08-11T09:01:31;94855.31;;;25.76;45.12
41078;BME280;26823;42.662;23.352;2022-08-11T09:03:57;94879.88;;;26.08;44.83
41078;BME280;26823;42.662;23.352;2022-08-11T09:06:24;94866.56;;;25.90;44.38
41078;BME280;26823;42.662;23.352;2022-08-11T09:08:49;94876.81;;;25.86;43.81
41078;BME280;26823;42.662;23.352;2022-08-11T09:11:15;94871.00;;;25.64;44.75
41078;BME280;26823;42.662;23.352;2022-08-11T09:14:01;94852.34;;;25.61;44.33
41078;BME280;26823;42.662;23.352;2022-08-11T09:16:28;94853.91;;;25.59;44.00
41078;BME280;26823;42.662;23.352;2022-08-11T09:18:54;94865.78;;;25.89;43.97
41078;BME280;26823;42.662;23.352;2022-08-11T09:21:20;94862.19;;;26.16;43.64
41078;BME280;26823;42.662;23.352;2022-08-11T09:23:48;94856.66;;;26.19;44.42
41078;BME280;26823;42.662;23.352;2022-08-11T09:26:36;94855.84;;;25.85;42.68
41078;BME280;26823;42.662;23.352;2022-08-11T09:29:21;94845.84;;;25.77;43.80
41078;BME280;26823;42.662;23.352;2022-08-11T09:31:47;94857.03;;;26.18;43.51
41078;BME280;26823;42.662;23.352;2022-08-11T09:34:14;94851.91;;;26.54;42.61
41078;BME280;26823;42.662;23.352;2022-08-11T09:36:40;94850.22;;;26.83;42.13
41078;BME280;26823;42.662;23.352;2022-08-11T09:39:28;94817.31;;;26.82;40.89
41078;BME280;26823;42.662;23.352;2022-08-11T09:42:13;94851.81;;;26.84;41.76
41078;BME280;26823;42.662;23.352;2022-08-11T09:44:39;94852.03;;;27.10;40.26
41078;BME280;26823;42.662;23.352;2022-08-11T09:47:28;94848.16;;;26.73;41.80
41078;BME280;26823;42.662;23.352;2022-08-11T09:49:56;94846.38;;;26.99;40.70
41078;BME280;26823;42.662;23.352;2022-08-11T09:52:24;94843.25;;;27.04;40.35
41078;BME280;26823;42.662;23.352;2022-08-11T09:54:51;94841.66;;;27.03;40.76
41078;BME280;26823;42.662;23.352;2022-08-11T09:57:21;94845.69;;;27.13;40.56
41078;BME280;26823;42.662;23.352;2022-08-11T10:00:11;94840.38;;;26.90;40.06
41078;BME280;26823;42.662;23.352;2022-08-11T10:02:45;94834.91;;;27.04;39.91
41078;BME280;26823;42.662;23.352;2022-08-11T10:05:15;94825.84;;;27.07;39.79
41078;BME280;26823;42.662;23.352;2022-08-11T10:08:02;94829.78;;;27.06;40.66
41078;BME280;26823;42.662;23.352;2022-08-11T10:10:28;94818.06;;;27.34;40.21
41078;BME280;26823;42.662;23.352;2022-08-11T10:12:58;94821.94;;;27.19;40.57
41078;BME280;26823;42.662;23.352;2022-08-11T10:15:29;94825.31;;;26.91;41.34
41078;BME280;26823;42.662;23.352;2022-08-11T10:18:03;94832.53;;;27.02;41.45
41078;BME280;26823;42.662;23.352;2022-08-11T10:20:49;94813.00;;;26.92;41.50
41078;BME280;26823;42.662;23.352;2022-08-11T10:23:14;94808.38;;;27.07;40.57
41078;BME280;26823;42.662;23.352;2022-08-11T10:25:59;94814.75;;;27.07;40.48
41078;BME280;26823;42.662;23.352;2022-08-11T10:28:43;94812.22;;;26.91;41.40
41078;BME280;26823;42.662;23.352;2022-08-11T10:31:09;94827.06;;;27.13;41.20
41078;BME280;26823;42.662;23.352;2022-08-11T10:33:54;94817.91;;;27.09;40.04
41078;BME280;26823;42.662;23.352;2022-08-11T10:36:28;94815.28;;;26.79;41.19
41078;BME280;26823;42.662;23.352;2022-08-11T10:38:59;94830.78;;;26.83;41.48
41078;BME280;26823;42.662;23.352;2022-08-11T10:41:27;94826.09;;;26.50;41.08
41078;BME280;26823;42.662;23.352;2022-08-11T10:44:11;94794.69;;;26.38;41.89
41078;BME280;26823;42.662;23.352;2022-08-11T10:46:38;94803.94;;;26.53;41.54
41078;BME280;26823;42.662;23.352;2022-08-11T10:49:22;94812.88;;;26.74;41.00
41078;BME280;26823;42.662;23.352;2022-08-11T10:51:49;94799.94;;;26.92;40.32
41078;BME280;26823;42.662;23.352;2022-08-11T10:54:35;94800.41;;;27.01;40.18
41078;BME280;26823;42.662;23.352;2022-08-11T10:57:19;94802.44;;;27.05;40.30
41078;BME280;26823;42.662;23.352;2022-08-11T11:00:05;94770.34;;;27.11;39.16
41078;BME280;26823;42.662;23.352;2022-08-11T11:02:32;94799.34;;;27.21;39.68
41078;BME280;26823;42.662;23.352;2022-08-11T11:05:02;94804.94;;;27.28;39.05
41078;BME280;26823;42.662;23.352;2022-08-11T11:07:49;94801.38;;;27.31;39.01
41078;BME280;26823;42.662;23.352;2022-08-11T11:10:15;94766.88;;;27.28;38.57
41078;BME280;26823;42.662;23.352;2022-08-11T11:15:28;94774.47;;;27.35;38.30
41078;BME280;26823;42.662;23.352;2022-08-11T11:18:21;94793.06;;;27.31;38.28
41078;BME280;26823;42.662;23.352;2022-08-11T11:21:08;94790.22;;;27.16;37.67
41078;BME280;26823;42.662;23.352;2022-08-11T11:26:59;94794.06;;;27.60;38.02
41078;BME280;26823;42.662;23.352;2022-08-11T11:29:30;94807.97;;;27.67;37.25
41078;BME280;26823;42.662;23.352;2022-08-11T11:35:03;94788.22;;;27.94;36.84
41078;BME280;26823;42.662;23.352;2022-08-11T11:37:36;94792.31;;;28.15;35.01
41078;BME280;26823;42.662;23.352;2022-08-11T11:40:14;94760.41;;;27.83;36.24
41078;BME280;26823;42.662;23.352;2022-08-11T11:42:43;94797.22;;;27.62;36.94
41078;BME280;26823;42.662;23.352;2022-08-11T11:45:10;94796.84;;;27.60;36.91
41078;BME280;26823;42.662;23.352;2022-08-11T11:47:39;94787.50;;;27.24;37.83
41078;BME280;26823;42.662;23.352;2022-08-11T11:50:07;94794.78;;;26.94;37.57
41078;BME280;26823;42.662;23.352;2022-08-11T11:52:33;94772.22;;;26.92;37.67
41078;BME280;26823;42.662;23.352;2022-08-11T11:54:59;94775.75;;;26.89;38.46
41078;BME280;26823;42.662;23.352;2022-08-11T11:57:26;94777.00;;;26.99;39.08
41078;BME280;26823;42.662;23.352;2022-08-11T12:00:11;94776.53;;;26.41;41.41
41078;BME280;26823;42.662;23.352;2022-08-11T12:03:01;94787.28;;;26.09;42.52
41078;BME280;26823;42.662;23.352;2022-08-11T12:05:27;94784.00;;;25.99;42.68
41078;BME280;26823;42.662;23.352;2022-08-11T12:07:54;94754.81;;;26.09;42.48
41078;BME280;26823;42.662;23.352;2022-08-11T12:10:50;94775.13;;;26.62;41.72
41078;BME280;26823;42.662;23.352;2022-08-11T12:13:39;94765.22;;;26.64;41.75
41078;BME280;26823;42.662;23.352;2022-08-11T12:16:05;94751.56;;;26.03;42.25
41078;BME280;26823;42.662;23.352;2022-08-11T12:18:33;94763.75;;;25.61;43.41
41078;BME280;26823;42.662;23.352;2022-08-11T12:21:01;94769.88;;;25.78;43.28
41078;BME280;26823;42.662;23.352;2022-08-11T12:23:27;94762.13;;;25.94;42.80
41078;BME280;26823;42.662;23.352;2022-08-11T12:26:18;94751.88;;;25.95;43.48
41078;BME280;26823;42.662;23.352;2022-08-11T12:29:04;94757.50;;;25.68;43.80
41078;BME280;26823;42.662;23.352;2022-08-11T12:31:31;94770.38;;;25.53;45.44
41078;BME280;26823;42.662;23.352;2022-08-11T12:34:05;94775.69;;;25.69;44.43
41078;BME280;26823;42.662;23.352;2022-08-11T12:36:36;94768.66;;;25.75;44.47
41078;BME280;26823;42.662;23.352;2022-08-11T12:39:05;94758.50;;;25.52;45.38
41078;BME280;26823;42.662;23.352;2022-08-11T12:41:32;94783.28;;;25.72;44.46
41078;BME280;26823;42.662;23.352;2022-08-11T12:44:26;94743.44;;;25.50;44.24
41078;BME280;26823;42.662;23.352;2022-08-11T12:47:18;94780.53;;;25.42;44.37
41078;BME280;26823;42.662;23.352;2022-08-11T12:49:48;94773.56;;;25.55;44.34
41078;BME280;26823;42.662;23.352;2022-08-11T12:52:36;94781.47;;;25.87;43.83
41078;BME280;26823;42.662;23.352;2022-08-11T12:55:12;94785.22;;;25.68;44.18
41078;BME280;26823;42.662;23.352;2022-08-11T12:57:59;94770.50;;;25.64;44.20
41078;BME280;26823;42.662;23.352;2022-08-11T13:00:44;94774.97;;;25.42;45.31
41078;BME280;26823;42.662;23.352;2022-08-11T13:03:31;94778.81;;;25.64;45.21
41078;BME280;26823;42.662;23.352;2022-08-11T13:06:16;94783.31;;;25.76;44.96
41078;BME280;26823;42.662;23.352;2022-08-11T13:08:44;94780.59;;;25.79;44.89
41078;BME280;26823;42.662;23.352;2022-08-11T13:11:11;94794.41;;;25.76;45.05
41078;BME280;26823;42.662;23.352;2022-08-11T13:13:56;94784.31;;;25.60;46.04
41078;BME280;26823;42.662;23.352;2022-08-11T13:16:28;94796.75;;;25.16;46.15
41078;BME280;26823;42.662;23.352;2022-08-11T13:18:58;94788.53;;;24.97;47.57
41078;BME280;26823;42.662;23.352;2022-08-11T13:21:25;94775.91;;;24.96;48.28
41078;BME280;26823;42.662;23.352;2022-08-11T13:23:53;94769.41;;;24.84;48.54
41078;BME280;26823;42.662;23.352;2022-08-11T13:26:20;94778.53;;;25.15;47.67
41078;BME280;26823;42.662;23.352;2022-08-11T13:28:46;94776.41;;;25.32;47.41
41078;BME280;26823;42.662;23.352;2022-08-11T13:31:12;94763.88;;;25.11;46.07
41078;BME280;26823;42.662;23.352;2022-08-11T13:33:44;94775.41;;;24.90;47.16
41078;BME280;26823;42.662;23.352;2022-08-11T13:36:11;94773.59;;;24.74;47.50
41078;BME280;26823;42.662;23.352;2022-08-11T13:38:37;94773.28;;;25.06;46.45
41078;BME280;26823;42.662;23.352;2022-08-11T13:41:05;94739.28;;;25.06;45.92
41078;BME280;26823;42.662;23.352;2022-08-11T13:43:53;94766.53;;;25.04;43.84
41078;BME280;26823;42.662;23.352;2022-08-11T13:46:21;94720.25;;;25.01;44.31
41078;BME280;26823;42.662;23.352;2022-08-11T13:48:50;94768.50;;;25.61;43.78
41078;BME280;26823;42.662;23.352;2022-08-11T13:51:17;94763.56;;;25.47;42.63
41078;BME280;26823;42.662;23.352;2022-08-11T13:54:08;94760.59;;;25.02;42.38
41078;BME280;26823;42.662;23.352;2022-08-11T13:56:37;94754.94;;;24.95;42.44
41078;BME280;26823;42.662;23.352;2022-08-11T13:59:05;94755.06;;;25.02;42.54
41078;BME280;26823;42.662;23.352;2022-08-11T14:01:34;94750.69;;;25.31;43.04
41078;BME280;26823;42.662;23.352;2022-08-11T14:04:10;94748.09;;;25.42;41.97
41078;BME280;26823;42.662;23.352;2022-08-11T14:06:40;94747.06;;;25.54;42.68
41078;BME280;26823;42.662;23.352;2022-08-11T14:09:09;94753.47;;;25.62;41.49
41078;BME280;26823;42.662;23.352;2022-08-11T14:11:35;94739.41;;;25.78;41.32
41078;BME280;26823;42.662;23.352;2022-08-11T14:14:25;94749.34;;;25.82;41.22
41078;BME280;26823;42.662;23.352;2022-08-11T14:16:55;94738.28;;;25.82;40.34
41078;BME280;26823;42.662;23.352;2022-08-11T14:19:23;94740.97;;;25.75;41.72
41078;BME280;26823;42.662;23.352;2022-08-11T14:21:50;94741.78;;;25.76;41.00
41078;BME280;26823;42.662;23.352;2022-08-11T14:24:34;94739.78;;;25.76;40.00
41078;BME280;26823;42.662;23.352;2022-08-11T14:27:01;94741.47;;;25.84;39.43
41078;BME280;26823;42.662;23.352;2022-08-11T14:29:27;94730.69;;;25.76;40.23
41078;BME280;26823;42.662;23.352;2022-08-11T14:31:56;94747.06;;;25.92;41.69
41078;BME280;26823;42.662;23.352;2022-08-11T14:34:26;94748.44;;;26.05;40.65
41078;BME280;26823;42.662;23.352;2022-08-11T14:36:56;94740.06;;;26.01;40.45
41078;BME280;26823;42.662;23.352;2022-08-11T14:39:31;94725.03;;;26.02;40.28
41078;BME280;26823;42.662;23.352;2022-08-11T14:42:02;94741.47;;;26.18;39.73
41078;BME280;26823;42.662;23.352;2022-08-11T14:44:52;94738.31;;;26.20;39.56
41078;BME280;26823;42.662;23.352;2022-08-11T14:47:41;94729.47;;;26.07;39.39
41078;BME280;26823;42.662;23.352;2022-08-11T14:50:14;94722.91;;;25.88;40.41
41078;BME280;26823;42.662;23.352;2022-08-11T14:52:47;94732.88;;;25.93;40.54
41078;BME280;26823;42.662;23.352;2022-08-11T14:55:13;94726.47;;;25.89;40.92
41078;BME280;26823;42.662;23.352;2022-08-11T14:57:58;94732.47;;;25.95;41.33
41078;BME280;26823;42.662;23.352;2022-08-11T15:00:25;94729.06;;;26.05;41.55
41078;BME280;26823;42.662;23.352;2022-08-11T15:02:52;94720.94;;;25.89;41.58
41078;BME280;26823;42.662;23.352;2022-08-11T15:05:48;94728.66;;;25.72;42.07
41078;BME280;26823;42.662;23.352;2022-08-11T15:08:15;94732.47;;;25.57;42.28
41078;BME280;26823;42.662;23.352;2022-08-11T15:10:42;94724.25;;;25.64;42.54
41078;BME280;26823;42.662;23.352;2022-08-11T15:13:08;94710.88;;;25.39;42.32
41078;BME280;26823;42.662;23.352;2022-08-11T15:15:35;94726.38;;;25.44;42.52
41078;BME280;26823;42.662;23.352;2022-08-11T15:18:21;94726.63;;;25.35;42.08
41078;BME280;26823;42.662;23.352;2022-08-11T15:20:51;94718.84;;;25.45;42.97
41078;BME280;26823;42.662;23.352;2022-08-11T15:23:35;94712.66;;;25.55;42.86
41078;BME280;26823;42.662;23.352;2022-08-11T15:26:27;94726.56;;;25.62;43.35
41078;BME280;26823;42.662;23.352;2022-08-11T15:29:14;94731.41;;;25.69;43.72
41078;BME280;26823;42.662;23.352;2022-08-11T15:32:01;94719.53;;;25.68;44.12
41078;BME280;26823;42.662;23.352;2022-08-11T15:34:55;94727.63;;;25.50;43.59
41078;BME280;26823;42.662;23.352;2022-08-11T15:37:42;94725.66;;;25.51;43.85
41078;BME280;26823;42.662;23.352;2022-08-11T15:40:20;94720.06;;;25.47;43.52
41078;BME280;26823;42.662;23.352;2022-08-11T15:43:13;94712.19;;;25.49;43.68
41078;BME280;26823;42.662;23.352;2022-08-11T15:46:02;94715.09;;;25.60;44.80
41078;BME280;26823;42.662;23.352;2022-08-11T15:53:46;94705.81;;;25.45;43.40
41078;BME280;26823;42.662;23.352;2022-08-11T15:56:15;94719.72;;;25.49;43.70
41078;BME280;26823;42.662;23.352;2022-08-11T15:58:45;94715.78;;;25.53;43.24
41078;BME280;26823;42.662;23.352;2022-08-11T16:01:30;94728.97;;;25.64;42.75
41078;BME280;26823;42.662;23.352;2022-08-11T16:04:19;94715.06;;;25.56;42.62
41078;BME280;26823;42.662;23.352;2022-08-11T16:06:50;94726.19;;;25.64;42.98
41078;BME280;26823;42.662;23.352;2022-08-11T16:09:21;94736.03;;;25.58;42.55
41078;BME280;26823;42.662;23.352;2022-08-11T16:11:48;94728.50;;;25.58;43.18
41078;BME280;26823;42.662;23.352;2022-08-11T16:14:16;94731.66;;;25.56;42.77
41078;BME280;26823;42.662;23.352;2022-08-11T16:17:02;94729.25;;;25.51;43.05
41078;BME280;26823;42.662;23.352;2022-08-11T16:19:28;94727.69;;;25.54;42.88
41078;BME280;26823;42.662;23.352;2022-08-11T16:21:59;94726.75;;;25.43;43.18
41078;BME280;26823;42.662;23.352;2022-08-11T16:24:26;94729.88;;;25.41;43.01
41078;BME280;26823;42.662;23.352;2022-08-11T16:26:53;94731.84;;;25.40;43.80
41078;BME280;26823;42.662;23.352;2022-08-11T16:29:22;94732.25;;;25.39;43.98
41078;BME280;26823;42.662;23.352;2022-08-11T16:31:50;94726.84;;;25.23;43.30
41078;BME280;26823;42.662;23.352;2022-08-11T16:34:37;94728.34;;;25.17;44.06
41078;BME280;26823;42.662;23.352;2022-08-11T16:37:22;94719.09;;;25.02;43.93
41078;BME280;26823;42.662;23.352;2022-08-11T16:40:07;94741.09;;;24.95;43.92
41078;BME280;26823;42.662;23.352;2022-08-11T16:42:34;94737.31;;;24.80;44.09
41078;BME280;26823;42.662;23.352;2022-08-11T16:45:19;94725.13;;;24.57;43.94
41078;BME280;26823;42.662;23.352;2022-08-11T16:48:03;94747.22;;;24.81;44.23
41078;BME280;26823;42.662;23.352;2022-08-11T16:50:31;94737.72;;;24.78;43.80
41078;BME280;26823;42.662;23.352;2022-08-11T16:52:57;94746.06;;;24.82;44.06
41078;BME280;26823;42.662;23.352;2022-08-11T16:55:23;94747.38;;;24.91;44.41
41078;BME280;26823;42.662;23.352;2022-08-11T16:57:49;94750.34;;;25.06;43.93
41078;BME280;26823;42.662;23.352;2022-08-11T17:00:34;94748.38;;;25.06;43.65
41078;BME280;26823;42.662;23.352;2022-08-11T17:03:01;94748.06;;;24.85;43.42
41078;BME280;26823;42.662;23.352;2022-08-11T17:05:52;94742.97;;;24.87;43.98
41078;BME280;26823;42.662;23.352;2022-08-11T17:08:49;94757.81;;;25.02;43.62
41078;BME280;26823;42.662;23.352;2022-08-11T17:11:50;94754.41;;;24.85;43.74
41078;BME280;26823;42.662;23.352;2022-08-11T17:14:51;94759.28;;;24.69;43.93
41078;BME280;26823;42.662;23.352;2022-08-11T17:17:28;94766.25;;;24.86;43.98
41078;BME280;26823;42.662;23.352;2022-08-11T17:20:00;94734.25;;;24.62;44.12
41078;BME280;26823;42.662;23.352;2022-08-11T17:22:28;94770.44;;;24.76;44.52
41078;BME280;26823;42.662;23.352;2022-08-11T17:25:14;94771.81;;;24.63;44.17
41078;BME280;26823;42.662;23.352;2022-08-11T17:27:41;94775.97;;;24.53;44.75
41078;BME280;26823;42.662;23.352;2022-08-11T17:30:08;94761.00;;;24.31;44.25